createdAt,value
2023-05-21T00:00:14.525Z,5.88
2023-05-21T00:02:43.048Z,9.32
2023-05-21T00:05:14.799Z,7.07
2023-05-21T00:07:43.062Z,8.98
2023-05-21T00:10:11.695Z,5.38
2023-05-21T00:12:41.821Z,8.40
2023-05-21T00:15:11.004Z,6.28
2023-05-21T00:17:40.085Z,9.73
2023-05-21T00:20:09.970Z,9.60
2023-05-21T00:22:37.771Z,5.55
2023-05-21T00:25:06.478Z,8.10
2023-05-21T00:27:34.272Z,7.10
2023-05-21T00:30:04.275Z,9.60
2023-05-21T00:32:32.123Z,5.38
2023-05-21T00:34:59.988Z,6.53
2023-05-21T00:37:29.842Z,7.38
2023-05-21T00:39:58.463Z,5.68
2023-05-21T00:42:27.399Z,8.48
2023-05-21T00:44:55.568Z,7.78
2023-05-21T00:47:26.961Z,6.78
2023-05-21T00:49:55.728Z,7.35
2023-05-21T00:52:26.793Z,10.00
2023-05-21T00:54:55.055Z,7.20
2023-05-21T00:57:27.133Z,7.03
2023-05-21T00:59:55.277Z,6.35
2023-05-21T01:02:26.168Z,8.50
2023-05-21T01:04:55.813Z,6.00
2023-05-21T01:07:23.626Z,7.22
2023-05-21T01:09:51.445Z,5.22
2023-05-21T01:12:20.626Z,7.03
2023-05-21T01:14:49.253Z,6.25
2023-05-21T01:17:17.752Z,8.48
2023-05-21T01:19:48.608Z,7.28
2023-05-21T01:22:18.815Z,7.57
2023-05-21T01:24:51.352Z,9.00
2023-05-21T01:27:20.012Z,8.73
2023-05-21T01:29:47.835Z,6.35
2023-05-21T01:32:22.186Z,7.90
2023-05-21T01:35:00.871Z,6.38
2023-05-21T01:37:35.392Z,8.65
2023-05-21T01:40:11.974Z,7.18
2023-05-21T01:42:44.626Z,6.38
2023-05-21T01:45:15.348Z,7.90
2023-05-21T01:47:46.279Z,9.75
2023-05-21T01:50:15.446Z,13.13
2023-05-21T01:52:50.988Z,6.88
2023-05-21T01:55:24.550Z,7.20
2023-05-21T01:57:53.956Z,8.63
2023-05-21T02:00:22.829Z,7.60
2023-05-21T02:02:50.862Z,9.68
2023-05-21T02:05:19.006Z,11.38
2023-05-21T02:07:47.330Z,5.25
2023-05-21T02:10:15.975Z,8.32
2023-05-21T02:12:45.307Z,8.75
2023-05-21T02:15:14.336Z,8.48
2023-05-21T02:17:42.580Z,5.97
2023-05-21T02:20:13.926Z,7.32
2023-05-21T02:22:42.923Z,10.27
2023-05-21T02:25:11.939Z,10.57
2023-05-21T02:27:40.706Z,7.40
2023-05-21T02:30:12.446Z,9.68
2023-05-21T02:32:42.730Z,13.35
2023-05-21T02:35:11.923Z,9.07
2023-05-21T02:37:41.292Z,10.73
2023-05-21T02:40:10.779Z,14.20
2023-05-21T02:42:40.457Z,10.93
2023-05-21T02:45:12.966Z,11.60
2023-05-21T02:47:43.347Z,11.03
2023-05-21T02:50:11.350Z,10.25
2023-05-21T02:52:45.633Z,13.57
2023-05-21T02:55:13.568Z,13.23
2023-05-21T02:57:41.506Z,10.23
2023-05-21T03:00:11.489Z,10.60
2023-05-21T03:02:42.256Z,14.18
2023-05-21T03:05:11.222Z,12.32
2023-05-21T03:07:39.011Z,12.43
2023-05-21T03:10:08.224Z,15.07
2023-05-21T03:12:36.498Z,11.20
2023-05-21T03:15:04.803Z,16.42
2023-05-21T03:17:32.751Z,9.98
2023-05-21T03:20:02.096Z,12.82
2023-05-21T03:22:30.130Z,15.40
2023-05-21T03:24:58.377Z,12.57
2023-05-21T03:27:27.042Z,17.20
2023-05-21T03:29:56.137Z,10.10
2023-05-21T03:32:24.644Z,11.45
2023-05-21T03:34:53.762Z,19.55
2023-05-21T03:37:23.017Z,9.43
2023-05-21T03:39:50.866Z,10.73
2023-05-21T03:42:19.007Z,11.68
2023-05-21T03:44:51.286Z,13.93
2023-05-21T03:47:48.904Z,11.70
2023-05-21T03:50:17.585Z,11.10
2023-05-21T03:52:46.825Z,12.20
2023-05-21T03:55:14.579Z,13.45
2023-05-21T03:57:42.588Z,15.18
2023-05-21T04:00:11.152Z,14.35
2023-05-21T04:02:45.090Z,11.18
2023-05-21T04:05:16.646Z,10.40
2023-05-21T04:07:46.535Z,11.05
2023-05-21T04:10:15.538Z,14.50
2023-05-21T04:12:43.485Z,12.35
2023-05-21T04:15:12.740Z,10.25
2023-05-21T04:17:40.585Z,11.45
2023-05-21T04:20:09.662Z,10.23
2023-05-21T04:22:38.185Z,12.00
2023-05-21T04:25:08.295Z,14.07
2023-05-21T04:27:38.911Z,15.13
2023-05-21T04:30:08.580Z,14.90
2023-05-21T04:32:38.629Z,20.05
2023-05-21T04:35:10.106Z,10.10
2023-05-21T04:37:42.049Z,14.80
2023-05-21T04:40:12.359Z,10.30
2023-05-21T04:42:41.282Z,15.27
2023-05-21T04:45:11.332Z,14.23
2023-05-21T04:47:41.687Z,8.70
2023-05-21T04:50:11.966Z,7.88
2023-05-21T04:52:40.502Z,15.52
2023-05-21T04:55:09.208Z,10.57
2023-05-21T04:57:38.598Z,10.18
2023-05-21T05:00:08.728Z,10.75
2023-05-21T05:02:41.760Z,9.90
2023-05-21T05:05:10.272Z,7.68
2023-05-21T05:07:38.609Z,19.35
2023-05-21T05:10:07.582Z,9.35
2023-05-21T05:12:35.441Z,7.30
2023-05-21T05:15:05.890Z,11.45
2023-05-21T05:17:35.585Z,13.70
2023-05-21T05:20:04.223Z,9.45
2023-05-21T05:22:32.099Z,8.73
2023-05-21T05:24:59.914Z,9.25
2023-05-21T05:27:27.790Z,17.42
2023-05-21T05:29:56.739Z,11.93
2023-05-21T05:32:26.139Z,10.00
2023-05-21T05:34:54.073Z,10.07
2023-05-21T05:37:21.914Z,9.95
2023-05-21T05:39:50.311Z,11.20
2023-05-21T05:42:18.130Z,10.75
2023-05-21T05:44:46.644Z,11.95
2023-05-21T05:47:14.529Z,12.20
2023-05-21T05:49:43.721Z,11.18
2023-05-21T05:52:11.991Z,9.70
2023-05-21T05:54:39.929Z,12.15
2023-05-21T05:57:07.766Z,7.70
2023-05-21T05:59:36.763Z,7.57
2023-05-21T06:02:06.265Z,14.65
2023-05-21T06:04:34.353Z,11.48
2023-05-21T06:07:03.577Z,9.52
2023-05-21T06:09:31.423Z,8.50
2023-05-21T06:11:59.282Z,8.93
2023-05-21T06:14:27.172Z,9.27
2023-05-21T06:16:55.547Z,5.55
2023-05-21T06:19:23.539Z,6.55
2023-05-21T06:21:51.557Z,10.40
2023-05-21T06:24:22.205Z,12.77
2023-05-21T06:26:50.025Z,7.03
2023-05-21T06:29:18.178Z,9.25
2023-05-21T06:31:47.727Z,8.20
2023-05-21T06:34:15.740Z,8.48
2023-05-21T06:36:43.567Z,11.27
2023-05-21T06:39:11.639Z,8.60
2023-05-21T06:41:41.072Z,14.05
2023-05-21T06:44:25.354Z,18.75
2023-05-21T06:47:15.053Z,13.32
2023-05-21T06:49:42.939Z,12.90
2023-05-21T06:52:11.267Z,13.68
2023-05-21T06:54:39.652Z,14.98
2023-05-21T06:57:09.772Z,9.07
2023-05-21T06:59:37.597Z,10.35
2023-05-21T07:02:05.796Z,10.27
2023-05-21T07:04:35.277Z,15.65
2023-05-21T07:07:04.635Z,8.63
2023-05-21T07:09:32.912Z,9.75
2023-05-21T07:12:01.277Z,12.57
2023-05-21T07:14:30.492Z,10.90
2023-05-21T07:16:58.954Z,12.20
2023-05-21T07:19:26.948Z,9.55
2023-05-21T07:21:54.891Z,12.05
2023-05-21T07:24:23.565Z,9.52
2023-05-21T07:26:51.425Z,12.23
2023-05-21T07:29:19.283Z,9.35
2023-05-21T07:31:48.866Z,11.75
2023-05-21T07:34:17.295Z,8.55
2023-05-21T07:36:46.428Z,9.88
2023-05-21T07:39:14.335Z,8.65
2023-05-21T07:41:43.516Z,12.98
2023-05-21T07:44:11.585Z,6.82
2023-05-21T07:46:42.778Z,6.38
2023-05-21T07:49:16.759Z,10.20
2023-05-21T07:51:45.966Z,10.45
2023-05-21T07:54:13.907Z,7.15
2023-05-21T07:56:41.964Z,9.18
2023-05-21T07:59:18.164Z,9.68
2023-05-21T08:01:46.913Z,9.80
2023-05-21T08:04:16.251Z,12.73
2023-05-21T08:06:44.419Z,8.90
2023-05-21T08:09:12.299Z,10.32
2023-05-21T08:11:40.144Z,9.60
2023-05-21T08:14:08.403Z,9.70
2023-05-21T08:16:36.829Z,11.05
2023-05-21T08:19:05.191Z,12.35
2023-05-21T08:21:35.024Z,14.13
2023-05-21T08:24:03.357Z,12.57
2023-05-21T08:26:31.285Z,12.23
2023-05-21T08:28:59.233Z,8.23
2023-05-21T08:31:27.349Z,12.05
2023-05-21T08:33:56.590Z,10.45
2023-05-21T08:36:37.489Z,10.23
2023-05-21T08:39:12.935Z,8.50
2023-05-21T08:41:49.638Z,9.93
2023-05-21T08:44:22.458Z,14.10
2023-05-21T08:46:51.788Z,9.20
2023-05-21T08:49:25.742Z,13.63
2023-05-21T08:52:00.609Z,8.05
2023-05-21T08:54:28.911Z,12.60
2023-05-21T08:56:59.181Z,5.75
2023-05-21T08:59:28.179Z,10.05
2023-05-21T09:01:57.767Z,11.52
2023-05-21T09:04:33.863Z,7.50
2023-05-21T09:07:03.836Z,10.30
2023-05-21T09:09:56.059Z,8.32
2023-05-21T09:12:24.597Z,7.45
2023-05-21T09:14:53.128Z,16.10
2023-05-21T09:17:26.529Z,13.18
2023-05-21T09:20:12.431Z,9.45
2023-05-21T09:22:46.450Z,10.75
2023-05-21T09:25:16.390Z,10.52
2023-05-21T09:27:44.485Z,8.40
2023-05-21T09:30:13.752Z,13.65
2023-05-21T09:32:43.191Z,10.40
2023-05-21T09:35:12.556Z,10.05
2023-05-21T09:37:41.054Z,8.63
2023-05-21T09:40:17.232Z,11.18
2023-05-21T09:42:48.309Z,11.07
2023-05-21T09:45:19.700Z,11.25
2023-05-21T09:47:49.014Z,7.75
2023-05-21T09:50:21.394Z,10.05
2023-05-21T09:52:50.422Z,11.73
2023-05-21T09:55:23.016Z,9.50
2023-05-21T09:57:51.465Z,10.37
2023-05-21T10:00:21.221Z,8.20
2023-05-21T10:02:50.768Z,9.45
2023-05-21T10:05:18.863Z,9.38
2023-05-21T10:07:51.465Z,7.20
2023-05-21T10:10:22.773Z,11.03
2023-05-21T10:12:56.059Z,7.72
2023-05-21T10:15:25.868Z,11.75
2023-05-21T10:17:56.736Z,10.18
2023-05-21T10:20:25.288Z,6.78
2023-05-21T10:22:54.017Z,11.30
2023-05-21T10:25:24.685Z,11.27
2023-05-21T10:27:53.063Z,13.32
2023-05-21T10:30:23.162Z,8.15
2023-05-21T10:32:51.491Z,12.13
2023-05-21T10:35:20.147Z,10.38
2023-05-21T10:37:48.034Z,7.50
2023-05-21T10:40:16.259Z,11.50
2023-05-21T10:43:07.415Z,9.00
2023-05-21T10:45:48.721Z,7.03
2023-05-21T10:48:31.716Z,10.30
2023-05-21T10:51:20.092Z,11.43
2023-05-21T10:54:18.782Z,14.70
2023-05-21T10:56:54.091Z,11.70
2023-05-21T10:59:36.763Z,12.35
2023-05-21T11:02:07.031Z,10.32
2023-05-21T11:04:39.956Z,16.08
2023-05-21T11:07:08.305Z,9.13
2023-05-21T11:09:36.448Z,13.80
2023-05-21T11:12:05.065Z,12.65
2023-05-21T11:14:39.711Z,8.90
2023-05-21T11:17:13.665Z,8.27
2023-05-21T11:19:43.358Z,10.00
2023-05-21T11:22:22.432Z,10.80
2023-05-21T11:24:51.722Z,14.40
2023-05-21T11:27:35.245Z,11.75
2023-05-21T11:30:08.014Z,18.00
2023-05-21T11:32:39.849Z,11.10
2023-05-21T11:35:08.944Z,10.95
2023-05-21T11:37:40.678Z,9.93
2023-05-21T11:40:32.520Z,12.45
2023-05-21T11:43:00.439Z,14.77
2023-05-21T11:45:32.377Z,9.13
2023-05-21T11:48:01.133Z,9.93
2023-05-21T11:50:30.873Z,16.45
2023-05-21T11:53:00.909Z,15.98
2023-05-21T11:55:28.957Z,19.23
2023-05-21T11:57:56.744Z,16.58
2023-05-21T12:00:24.699Z,10.73
2023-05-21T12:02:56.247Z,15.25
2023-05-21T12:05:25.052Z,13.20
2023-05-21T12:07:54.644Z,14.70
2023-05-21T12:10:24.222Z,17.05
2023-05-21T12:12:56.317Z,11.25
2023-05-21T12:15:27.188Z,13.45
2023-05-21T12:17:57.867Z,15.48
2023-05-21T12:20:28.190Z,15.27
2023-05-21T12:22:58.868Z,13.75
2023-05-21T12:25:27.432Z,18.60
2023-05-21T12:27:58.316Z,17.13
2023-05-21T12:30:26.861Z,17.55
2023-05-21T12:32:54.805Z,19.33
2023-05-21T12:35:25.113Z,17.02
2023-05-21T12:37:53.431Z,17.63
2023-05-21T12:40:22.481Z,16.65
2023-05-21T12:42:51.739Z,22.33
2023-05-21T12:45:22.188Z,13.60
2023-05-21T12:47:56.014Z,19.95
2023-05-21T12:50:26.226Z,14.32
2023-05-21T12:52:58.941Z,17.35
2023-05-21T12:55:27.161Z,14.88
2023-05-21T12:58:07.835Z,17.65
2023-05-21T13:00:36.335Z,16.10
2023-05-21T13:03:06.386Z,14.65
2023-05-21T13:05:36.561Z,20.10
2023-05-21T13:08:04.688Z,18.10
2023-05-21T13:10:32.636Z,17.67
2023-05-21T13:13:00.482Z,17.70
2023-05-21T13:15:28.552Z,19.40
2023-05-21T13:17:57.196Z,18.00
2023-05-21T13:20:27.488Z,19.83
2023-05-21T13:22:56.990Z,16.98
2023-05-21T13:25:28.835Z,16.48
2023-05-21T13:27:57.554Z,24.38
2023-05-21T13:30:25.583Z,19.33
2023-05-21T13:32:53.547Z,17.58
2023-05-21T13:35:21.764Z,17.13
2023-05-21T13:37:50.289Z,26.90
2023-05-21T13:40:19.532Z,19.02
2023-05-21T13:42:49.404Z,19.45
2023-05-21T13:45:19.536Z,18.13
2023-05-21T13:47:48.410Z,23.48
2023-05-21T13:50:17.590Z,19.30
2023-05-21T13:52:45.958Z,17.15
2023-05-21T13:55:15.858Z,19.38
2023-05-21T13:57:46.044Z,18.60
2023-05-21T14:00:16.794Z,21.70
2023-05-21T14:02:45.495Z,21.08
2023-05-21T14:05:15.387Z,20.63
2023-05-21T14:07:43.264Z,19.48
2023-05-21T14:10:11.762Z,16.08
2023-05-21T14:12:40.613Z,21.13
2023-05-21T14:15:10.753Z,24.05
2023-05-21T14:17:40.501Z,17.05
2023-05-21T14:20:10.052Z,22.52
2023-05-21T14:22:38.645Z,20.55
2023-05-21T14:25:07.560Z,20.15
2023-05-21T14:27:37.969Z,24.00
2023-05-21T14:30:06.795Z,20.58
2023-05-21T14:32:36.047Z,17.02
2023-05-21T14:35:05.065Z,14.13
2023-05-21T14:37:33.003Z,20.95
2023-05-21T14:40:01.017Z,17.50
2023-05-21T14:42:29.121Z,20.17
2023-05-21T14:47:26.538Z,17.23
2023-05-21T14:49:55.678Z,20.35
2023-05-21T14:52:23.522Z,27.05
2023-05-21T14:54:51.312Z,22.05
2023-05-21T14:57:19.099Z,20.35
2023-05-21T14:59:47.155Z,28.08
2023-05-21T15:02:15.146Z,22.90
2023-05-21T15:04:44.002Z,19.48
2023-05-21T15:07:13.140Z,26.35
2023-05-21T15:09:40.882Z,21.00
2023-05-21T15:12:08.849Z,22.02
2023-05-21T15:14:36.722Z,26.30
2023-05-21T15:17:05.084Z,25.17
2023-05-21T15:19:33.273Z,24.20
2023-05-21T15:22:01.265Z,18.25
2023-05-21T15:24:30.447Z,25.88
2023-05-21T15:26:58.328Z,22.60
2023-05-21T15:29:26.158Z,24.55
2023-05-21T15:31:53.961Z,20.95
2023-05-21T15:34:21.858Z,24.10
2023-05-21T15:36:49.856Z,20.83
2023-05-21T15:39:17.646Z,25.92
2023-05-21T15:41:46.748Z,21.08
2023-05-21T15:44:14.629Z,21.42
2023-05-21T15:46:42.617Z,25.58
2023-05-21T15:49:10.614Z,19.98
2023-05-21T15:51:40.293Z,20.73
2023-05-21T15:54:08.400Z,26.45
2023-05-21T15:56:36.439Z,18.23
2023-05-21T15:59:06.134Z,24.70
2023-05-21T16:01:34.486Z,19.83
2023-05-21T16:04:02.712Z,21.67
2023-05-21T16:06:31.464Z,27.05
2023-05-21T16:08:59.393Z,24.63
2023-05-21T16:11:27.479Z,24.30
2023-05-21T16:13:55.744Z,22.77
2023-05-21T16:16:25.085Z,26.42
2023-05-21T16:18:53.002Z,26.13
2023-05-21T16:21:21.076Z,24.20
2023-05-21T16:23:49.191Z,29.27
2023-05-21T16:26:17.182Z,19.88
2023-05-21T16:28:45.023Z,22.60
2023-05-21T16:31:13.873Z,25.58
2023-05-21T16:33:43.106Z,19.60
2023-05-21T16:36:11.169Z,19.02
2023-05-21T16:38:39.247Z,19.05
2023-05-21T16:41:07.159Z,23.98
2023-05-21T16:43:35.141Z,21.58
2023-05-21T16:46:03.277Z,21.80
2023-05-21T16:48:32.310Z,22.38
2023-05-21T16:51:02.360Z,23.08
2023-05-21T16:53:30.481Z,22.40
2023-05-21T16:55:58.347Z,21.80
2023-05-21T16:58:26.215Z,28.73
2023-05-21T17:00:54.216Z,17.75
2023-05-21T17:03:22.125Z,25.73
2023-05-21T17:05:50.359Z,23.98
2023-05-21T17:08:19.639Z,23.38
2023-05-21T17:10:47.745Z,21.17
2023-05-21T17:13:22.301Z,21.75
2023-05-21T17:15:51.596Z,20.85
2023-05-21T17:18:19.608Z,30.95
2023-05-21T17:20:47.461Z,22.10
2023-05-21T17:23:15.637Z,23.13
2023-05-21T17:25:45.089Z,23.83
2023-05-21T17:28:12.878Z,22.15
2023-05-21T17:30:41.014Z,19.05
2023-05-21T17:33:10.367Z,26.20
2023-05-21T17:35:39.272Z,23.02
2023-05-21T17:38:07.533Z,22.75
2023-05-21T17:40:35.657Z,20.60
2023-05-21T17:43:07.307Z,25.58
2023-05-21T17:45:35.629Z,27.90
2023-05-21T17:48:04.020Z,20.63
2023-05-21T17:50:32.157Z,19.15
2023-05-21T17:53:00.411Z,26.52
2023-05-21T17:55:28.326Z,18.80
2023-05-21T17:57:56.374Z,23.58
2023-05-21T18:00:25.845Z,32.70
2023-05-21T18:02:53.780Z,24.30
2023-05-21T18:05:22.761Z,24.75
2023-05-21T18:07:50.926Z,28.83
2023-05-21T18:10:19.454Z,24.60
2023-05-21T18:12:47.320Z,28.77
2023-05-21T18:15:16.027Z,27.48
2023-05-21T18:17:45.550Z,27.30
2023-05-21T18:20:14.875Z,28.77
2023-05-21T18:22:42.876Z,27.52
2023-05-21T18:25:11.428Z,23.30
2023-05-21T18:27:39.737Z,23.98
2023-05-21T18:30:08.937Z,23.02
2023-05-21T18:32:39.200Z,26.65
2023-05-21T18:35:11.967Z,26.40
2023-05-21T18:37:44.326Z,27.35
2023-05-21T18:40:13.298Z,22.35
2023-05-21T18:42:41.331Z,21.42
2023-05-21T18:45:10.300Z,27.85
2023-05-21T18:47:40.196Z,25.42
2023-05-21T18:50:12.492Z,29.25
2023-05-21T18:52:40.402Z,24.00
2023-05-21T18:55:09.153Z,23.98
2023-05-21T18:57:38.172Z,22.83
2023-05-21T19:00:09.552Z,27.90
2023-05-21T19:02:37.739Z,29.73
2023-05-21T19:05:06.628Z,24.58
2023-05-21T19:07:36.218Z,26.98
2023-05-21T19:10:04.237Z,23.27
2023-05-21T19:12:32.472Z,25.23
2023-05-21T19:15:00.350Z,30.42
2023-05-21T19:17:28.394Z,24.52
2023-05-21T19:19:56.720Z,21.85
2023-05-21T19:22:24.966Z,28.08
2023-05-21T19:24:54.568Z,28.23
2023-05-21T19:27:22.584Z,22.27
2023-05-21T19:29:50.553Z,25.60
2023-05-21T19:32:18.729Z,24.95
2023-05-21T19:34:46.621Z,28.90
2023-05-21T19:37:16.742Z,26.58
2023-05-21T19:39:49.516Z,20.85
2023-05-21T19:42:21.552Z,25.98
2023-05-21T19:44:49.468Z,24.05
2023-05-21T19:47:17.464Z,28.17
2023-05-21T19:49:45.655Z,29.63
2023-05-21T19:52:13.513Z,25.00
2023-05-21T19:54:41.434Z,25.00
2023-05-21T19:57:12.132Z,22.63
2023-05-21T19:59:41.735Z,23.75
2023-05-21T20:02:13.286Z,27.83
2023-05-21T20:04:41.544Z,25.38
2023-05-21T20:07:11.169Z,30.50
2023-05-21T20:09:40.221Z,28.52
2023-05-21T20:12:09.120Z,21.48
2023-05-21T20:14:37.037Z,21.30
2023-05-21T20:17:07.201Z,29.98
2023-05-21T20:19:36.255Z,26.75
2023-05-21T20:22:04.508Z,24.63
2023-05-21T20:24:32.423Z,30.45
2023-05-21T20:27:01.630Z,22.30
2023-05-21T20:29:29.962Z,26.83
2023-05-21T20:31:58.046Z,26.40
2023-05-21T20:34:29.566Z,23.95
2023-05-21T20:36:58.321Z,22.60
2023-05-21T20:39:27.838Z,27.35
2023-05-21T20:41:56.484Z,20.38
2023-05-21T20:44:25.957Z,22.92
2023-05-21T20:46:57.619Z,26.45
2023-05-21T20:49:28.184Z,27.15
2023-05-21T20:51:56.514Z,30.90
2023-05-21T20:54:24.521Z,29.70
2023-05-21T20:56:55.549Z,25.35
2023-05-21T20:59:23.408Z,22.98
2023-05-21T21:01:52.666Z,28.25
2023-05-21T21:04:20.818Z,19.55
2023-05-21T21:06:50.326Z,24.92
2023-05-21T21:09:18.270Z,28.80
2023-05-21T21:11:46.263Z,26.38
2023-05-21T21:14:14.882Z,26.23
2023-05-21T21:16:42.870Z,24.60
2023-05-21T21:19:10.826Z,26.65
2023-05-21T21:21:38.978Z,27.13
2023-05-21T21:24:09.063Z,28.95
2023-05-21T21:26:36.947Z,29.17
2023-05-21T21:29:04.946Z,24.30
2023-05-21T21:31:32.845Z,26.92
2023-05-21T21:34:01.176Z,28.60
2023-05-21T21:36:29.712Z,28.38
2023-05-21T21:38:58.068Z,30.20
2023-05-21T21:41:27.322Z,24.95
2023-05-21T21:43:55.447Z,27.85
2023-05-21T21:46:23.369Z,28.45
2023-05-21T21:48:51.192Z,26.08
2023-05-21T21:51:19.933Z,26.48
2023-05-21T21:53:49.103Z,28.48
2023-05-21T21:56:19.960Z,35.00
2023-05-21T21:58:49.446Z,30.17
2023-05-21T22:01:17.430Z,30.38
2023-05-21T22:03:45.556Z,23.55
2023-05-21T22:06:13.487Z,31.48
2023-05-21T22:08:41.541Z,30.55
2023-05-21T22:11:09.960Z,24.48
2023-05-21T22:13:38.672Z,32.30
2023-05-21T22:16:08.447Z,29.92
2023-05-21T22:18:41.537Z,23.45
2023-05-21T22:23:39.700Z,34.10
2023-05-21T22:26:08.720Z,26.50
2023-05-21T22:28:36.790Z,24.33
2023-05-21T22:31:04.999Z,27.63
2023-05-21T22:33:34.322Z,24.42
2023-05-21T22:36:02.439Z,29.83
2023-05-21T22:38:30.510Z,25.90
2023-05-21T22:40:58.434Z,22.83
2023-05-21T22:43:26.793Z,30.92
2023-05-21T22:45:54.824Z,28.55
2023-05-21T22:48:23.040Z,27.40
2023-05-21T22:50:53.488Z,24.95
2023-05-21T22:53:21.764Z,28.33
2023-05-21T22:55:49.846Z,22.75
2023-05-21T22:58:18.267Z,27.52
2023-05-21T23:00:47.595Z,22.13
2023-05-21T23:03:17.840Z,25.38
2023-05-21T23:05:46.167Z,25.33
2023-05-21T23:08:15.757Z,21.25
2023-05-21T23:10:43.750Z,25.90
2023-05-21T23:13:12.944Z,21.90
2023-05-21T23:15:43.660Z,29.95
2023-05-21T23:18:11.838Z,23.63
2023-05-21T23:20:42.234Z,25.98
2023-05-21T23:23:10.988Z,25.40
2023-05-21T23:25:40.291Z,23.13
2023-05-21T23:28:08.413Z,26.52
2023-05-21T23:30:36.611Z,23.52
2023-05-21T23:33:04.865Z,18.58
2023-05-21T23:35:32.891Z,20.67
2023-05-21T23:38:00.986Z,21.67
2023-05-21T23:40:29.085Z,25.58
2023-05-21T23:42:59.025Z,25.38
2023-05-21T23:45:27.033Z,25.63
2023-05-21T23:47:55.172Z,23.50
2023-05-21T23:50:25.335Z,21.58
2023-05-21T23:52:53.368Z,27.88
2023-05-21T23:55:21.538Z,28.65
2023-05-21T23:57:49.583Z,21.67
